This is the latest recevied weather packets stored in our database for station/object WO5CID. If no packets are shown the sender has not sent any weather packets the latest 10 day(s).
| Time | Temp. | Humidity | Pressure | Rain* | Wind** | Luminosity | Snow |
|---|---|---|---|---|---|---|---|
| 1777837954 | 25.56° C | 45% | 1017.1 hPa | 0 mm | - | 598 W/m² | - |
| 1777837652 | 25.56° C | 42% | 1017.1 hPa | 0 mm | - | 502 W/m² | - |
| 1777837347 | 25° C | 44% | 1017.2 hPa | 0 mm | - | 836 W/m² | - |
| 1777837043 | 25.56° C | 43% | 1017.4 hPa | 0 mm | - | 714 W/m² | - |
| 1777836734 | 25.56° C | 43% | 1017.2 hPa | 0 mm | - | 787 W/m² | - |
| 1777836429 | 25° C | 48% | 1017.5 hPa | 0 mm | - | 624 W/m² | - |
| 1777836125 | 25° C | 46% | 1017.5 hPa | 0 mm | - | 466 W/m² | - |
| 1777835821 | 23.89° C | 46% | 1017.7 hPa | 0 mm | - | 804 W/m² | - |
| 1777835519 | 25° C | 45% | 1017.7 hPa | 0 mm | - | 245 W/m² | - |
| 1777835216 | 26.11° C | 43% | 1017.8 hPa | 0 mm | - | 270 W/m² | - |
| 1777834912 | 26.67° C | 42% | 1017.9 hPa | 0 mm | - | 827 W/m² | - |
| 1777834610 | 25.56° C | 46% | 1017.8 hPa | 0 mm | - | 890 W/m² | - |
| 1777834305 | 25° C | 44% | 1017.8 hPa | 0 mm | - | 757 W/m² | - |
| 1777834000 | 26.11° C | 41% | 1017.9 hPa | 0 mm | - | 232 W/m² | - |
| 1777833697 | 26.11° C | 41% | 1018.1 hPa | 0 mm | - | 902 W/m² | - |
| 1777833393 | 26.11° C | 43% | 1018.1 hPa | 0 mm | - | 698 W/m² | - |
| 1777833090 | 26.11° C | 42% | 1018.1 hPa | 0 mm | - | 931 W/m² | - |
| 1777832789 | 26.67° C | 42% | 1018.4 hPa | 0 mm | - | 759 W/m² | - |
| 1777832487 | 25.56° C | 49% | 1018.4 hPa | 0 mm | - | 991 W/m² | - |
| 1777832183 | 25° C | 48% | 1018.2 hPa | 0 mm | - | 379 W/m² | - |
| 1777831880 | 25.56° C | 45% | 1018.3 hPa | 0 mm | - | 195 W/m² | - |
| 1777831577 | 25° C | 48% | 1018.3 hPa | 0 mm | - | 216 W/m² | - |
| 1777831275 | 25° C | 45% | 1018.1 hPa | 0 mm | - | 974 W/m² | - |
| 1777830971 | 26.11° C | 42% | 1018.3 hPa | 0 mm | - | 246 W/m² | - |
| 1777830669 | 26.11° C | 43% | 1018.4 hPa | 0 mm | - | 516 W/m² | - |
* Rain latest hour (hover to see other rain measurements)
** Current wind speed in m/s (hover to see current wind gust speed)